sensor_id;sensor_type;location;lat;lon;timestamp;temperature;humidity
39493;DHT22;25176;51.060;3.720;2024-01-11T00:00:14;-1.20;95.10
39493;DHT22;25176;51.060;3.720;2024-01-11T00:02:39;-1.30;95.30
39493;DHT22;25176;51.060;3.720;2024-01-11T00:05:05;-1.30;95.20
39493;DHT22;25176;51.060;3.720;2024-01-11T00:07:31;-1.30;95.40
39493;DHT22;25176;51.060;3.720;2024-01-11T00:09:57;-1.30;95.50
39493;DHT22;25176;51.060;3.720;2024-01-11T00:12:22;-1.30;95.60
39493;DHT22;25176;51.060;3.720;2024-01-11T00:14:48;-1.30;95.80
39493;DHT22;25176;51.060;3.720;2024-01-11T00:17:13;-1.30;95.80
39493;DHT22;25176;51.060;3.720;2024-01-11T00:19:41;-1.30;95.70
39493;DHT22;25176;51.060;3.720;2024-01-11T00:22:06;-1.40;95.80
39493;DHT22;25176;51.060;3.720;2024-01-11T00:24:32;-1.40;95.80
39493;DHT22;25176;51.060;3.720;2024-01-11T00:26:57;-1.40;96.00
39493;DHT22;25176;51.060;3.720;2024-01-11T00:29:23;-1.40;96.00
39493;DHT22;25176;51.060;3.720;2024-01-11T00:31:48;-1.40;96.10
39493;DHT22;25176;51.060;3.720;2024-01-11T00:34:14;-1.40;96.00
39493;DHT22;25176;51.060;3.720;2024-01-11T00:36:39;-1.40;96.20
39493;DHT22;25176;51.060;3.720;2024-01-11T00:39:05;-1.40;96.20
39493;DHT22;25176;51.060;3.720;2024-01-11T00:41:30;-1.40;96.30
39493;DHT22;25176;51.060;3.720;2024-01-11T00:43:56;-1.30;96.20
39493;DHT22;25176;51.060;3.720;2024-01-11T00:46:21;-1.30;96.10
39493;DHT22;25176;51.060;3.720;2024-01-11T00:48:47;-1.30;95.90
39493;DHT22;25176;51.060;3.720;2024-01-11T00:51:12;-1.40;96.10
39493;DHT22;25176;51.060;3.720;2024-01-11T00:53:38;-1.40;96.00
39493;DHT22;25176;51.060;3.720;2024-01-11T00:56:03;-1.40;96.20
39493;DHT22;25176;51.060;3.720;2024-01-11T00:58:29;-1.50;96.20
39493;DHT22;25176;51.060;3.720;2024-01-11T01:00:54;-1.50;96.50
39493;DHT22;25176;51.060;3.720;2024-01-11T01:03:23;-1.50;96.20
39493;DHT22;25176;51.060;3.720;2024-01-11T01:05:48;-1.50;96.30
39493;DHT22;25176;51.060;3.720;2024-01-11T01:08:14;-1.50;96.30
39493;DHT22;25176;51.060;3.720;2024-01-11T01:10:39;-1.60;96.20
39493;DHT22;25176;51.060;3.720;2024-01-11T01:13:05;-1.60;96.30
39493;DHT22;25176;51.060;3.720;2024-01-11T01:15:30;-1.60;96.40
39493;DHT22;25176;51.060;3.720;2024-01-11T01:17:56;-1.60;96.50
39493;DHT22;25176;51.060;3.720;2024-01-11T01:20:22;-1.60;96.50
39493;DHT22;25176;51.060;3.720;2024-01-11T01:22:47;-1.60;96.50
39493;DHT22;25176;51.060;3.720;2024-01-11T01:25:13;-1.60;96.40
39493;DHT22;25176;51.060;3.720;2024-01-11T01:27:38;-1.60;96.50
39493;DHT22;25176;51.060;3.720;2024-01-11T01:30:04;-1.70;96.60
39493;DHT22;25176;51.060;3.720;2024-01-11T01:32:30;-1.60;96.60
39493;DHT22;25176;51.060;3.720;2024-01-11T01:34:56;-1.70;96.60
39493;DHT22;25176;51.060;3.720;2024-01-11T01:37:21;-1.70;96.50
39493;DHT22;25176;51.060;3.720;2024-01-11T01:39:47;-1.70;96.70
39493;DHT22;25176;51.060;3.720;2024-01-11T01:42:12;-1.70;96.70
39493;DHT22;25176;51.060;3.720;2024-01-11T01:44:38;-1.70;96.80
39493;DHT22;25176;51.060;3.720;2024-01-11T01:47:06;-1.60;96.90
39493;DHT22;25176;51.060;3.720;2024-01-11T01:49:33;-1.70;96.80
39493;DHT22;25176;51.060;3.720;2024-01-11T01:51:58;-1.60;96.80
39493;DHT22;25176;51.060;3.720;2024-01-11T01:54:24;-1.60;96.70
39493;DHT22;25176;51.060;3.720;2024-01-11T01:56:49;-1.60;96.90
39493;DHT22;25176;51.060;3.720;2024-01-11T01:59:15;-1.60;97.00
39493;DHT22;25176;51.060;3.720;2024-01-11T02:01:41;-1.50;96.90
39493;DHT22;25176;51.060;3.720;2024-01-11T02:04:06;-1.40;96.70
39493;DHT22;25176;51.060;3.720;2024-01-11T02:06:32;-1.40;96.60
39493;DHT22;25176;51.060;3.720;2024-01-11T02:08:58;-1.40;96.60
39493;DHT22;25176;51.060;3.720;2024-01-11T02:11:24;-1.40;96.70
39493;DHT22;25176;51.060;3.720;2024-01-11T02:13:50;-1.40;96.70
39493;DHT22;25176;51.060;3.720;2024-01-11T02:16:15;-1.40;96.70
39493;DHT22;25176;51.060;3.720;2024-01-11T02:18:41;-1.40;96.80
39493;DHT22;25176;51.060;3.720;2024-01-11T02:21:08;-1.40;96.70
39493;DHT22;25176;51.060;3.720;2024-01-11T02:23:34;-1.50;96.70
39493;DHT22;25176;51.060;3.720;2024-01-11T02:26:01;-1.50;96.70
39493;DHT22;25176;51.060;3.720;2024-01-11T02:28:27;-1.50;97.00
39493;DHT22;25176;51.060;3.720;2024-01-11T02:30:52;-1.50;96.90
39493;DHT22;25176;51.060;3.720;2024-01-11T02:33:18;-1.40;96.80
39493;DHT22;25176;51.060;3.720;2024-01-11T02:35:44;-1.40;96.80
39493;DHT22;25176;51.060;3.720;2024-01-11T02:38:09;-1.50;96.90
39493;DHT22;25176;51.060;3.720;2024-01-11T02:40:34;-1.50;97.20
39493;DHT22;25176;51.060;3.720;2024-01-11T02:43:07;-1.50;96.90
39493;DHT22;25176;51.060;3.720;2024-01-11T02:45:32;-1.50;97.00
39493;DHT22;25176;51.060;3.720;2024-01-11T02:47:58;-1.50;97.20
39493;DHT22;25176;51.060;3.720;2024-01-11T02:50:23;-1.60;97.00
39493;DHT22;25176;51.060;3.720;2024-01-11T02:52:49;-1.60;97.30
39493;DHT22;25176;51.060;3.720;2024-01-11T02:55:14;-1.50;97.40
39493;DHT22;25176;51.060;3.720;2024-01-11T02:57:40;-1.50;97.10
39493;DHT22;25176;51.060;3.720;2024-01-11T03:00:05;-1.60;97.20
39493;DHT22;25176;51.060;3.720;2024-01-11T03:02:31;-1.50;97.60
39493;DHT22;25176;51.060;3.720;2024-01-11T03:04:57;-1.40;97.30
39493;DHT22;25176;51.060;3.720;2024-01-11T03:07:22;-1.40;97.20
39493;DHT22;25176;51.060;3.720;2024-01-11T03:09:48;-1.40;97.10
39493;DHT22;25176;51.060;3.720;2024-01-11T03:12:13;-1.40;97.30
39493;DHT22;25176;51.060;3.720;2024-01-11T03:14:39;-1.40;97.20
39493;DHT22;25176;51.060;3.720;2024-01-11T03:17:04;-1.50;97.40
39493;DHT22;25176;51.060;3.720;2024-01-11T03:19:30;-1.60;97.40
39493;DHT22;25176;51.060;3.720;2024-01-11T03:21:55;-1.70;97.50
39493;DHT22;25176;51.060;3.720;2024-01-11T03:24:21;-1.70;97.80
39493;DHT22;25176;51.060;3.720;2024-01-11T03:26:47;-1.70;97.90
39493;DHT22;25176;51.060;3.720;2024-01-11T03:29:12;-1.70;97.80
39493;DHT22;25176;51.060;3.720;2024-01-11T03:31:38;-1.70;97.90
39493;DHT22;25176;51.060;3.720;2024-01-11T03:34:07;-1.70;98.10
39493;DHT22;25176;51.060;3.720;2024-01-11T03:36:32;-1.70;97.90
39493;DHT22;25176;51.060;3.720;2024-01-11T03:38:58;-1.70;98.00
39493;DHT22;25176;51.060;3.720;2024-01-11T03:41:23;-1.80;98.10
39493;DHT22;25176;51.060;3.720;2024-01-11T03:43:49;-1.60;98.20
39493;DHT22;25176;51.060;3.720;2024-01-11T03:46:15;-1.60;98.10
39493;DHT22;25176;51.060;3.720;2024-01-11T03:48:41;-1.70;98.20
39493;DHT22;25176;51.060;3.720;2024-01-11T03:51:06;-1.70;98.20
39493;DHT22;25176;51.060;3.720;2024-01-11T03:53:35;-1.60;98.30
39493;DHT22;25176;51.060;3.720;2024-01-11T03:56:02;-1.60;98.20
39493;DHT22;25176;51.060;3.720;2024-01-11T03:58:27;-1.60;98.40
39493;DHT22;25176;51.060;3.720;2024-01-11T04:00:53;-1.60;98.60
39493;DHT22;25176;51.060;3.720;2024-01-11T04:03:18;-1.50;98.40
39493;DHT22;25176;51.060;3.720;2024-01-11T04:05:44;-1.60;98.60
39493;DHT22;25176;51.060;3.720;2024-01-11T04:08:09;-1.60;98.80
39493;DHT22;25176;51.060;3.720;2024-01-11T04:10:35;-1.60;99.00
39493;DHT22;25176;51.060;3.720;2024-01-11T04:13:01;-1.60;98.80
39493;DHT22;25176;51.060;3.720;2024-01-11T04:15:26;-1.50;98.90
39493;DHT22;25176;51.060;3.720;2024-01-11T04:17:51;-1.50;98.80
39493;DHT22;25176;51.060;3.720;2024-01-11T04:20:17;-1.30;98.80
39493;DHT22;25176;51.060;3.720;2024-01-11T04:22:43;-1.10;98.60
39493;DHT22;25176;51.060;3.720;2024-01-11T04:25:08;-1.10;98.30
39493;DHT22;25176;51.060;3.720;2024-01-11T04:27:34;-1.30;98.10
39493;DHT22;25176;51.060;3.720;2024-01-11T04:29:59;-1.40;98.40
39493;DHT22;25176;51.060;3.720;2024-01-11T04:32:25;-1.50;98.50
39493;DHT22;25176;51.060;3.720;2024-01-11T04:34:50;-1.40;98.50
39493;DHT22;25176;51.060;3.720;2024-01-11T04:37:16;-1.40;98.70
39493;DHT22;25176;51.060;3.720;2024-01-11T04:39:41;-1.40;98.50
39493;DHT22;25176;51.060;3.720;2024-01-11T04:42:07;-1.30;98.50
39493;DHT22;25176;51.060;3.720;2024-01-11T04:44:32;-1.40;98.40
39493;DHT22;25176;51.060;3.720;2024-01-11T04:46:58;-1.40;98.40
39493;DHT22;25176;51.060;3.720;2024-01-11T04:49:23;-1.40;98.40
39493;DHT22;25176;51.060;3.720;2024-01-11T04:51:49;-1.40;98.50
39493;DHT22;25176;51.060;3.720;2024-01-11T04:54:14;-1.40;98.60
39493;DHT22;25176;51.060;3.720;2024-01-11T04:56:40;-1.40;98.70
39493;DHT22;25176;51.060;3.720;2024-01-11T04:59:05;-1.40;98.90
39493;DHT22;25176;51.060;3.720;2024-01-11T05:01:31;-1.50;99.00
39493;DHT22;25176;51.060;3.720;2024-01-11T05:03:56;-1.40;99.10
39493;DHT22;25176;51.060;3.720;2024-01-11T05:06:22;-1.40;99.10
39493;DHT22;25176;51.060;3.720;2024-01-11T05:08:48;-1.40;99.10
39493;DHT22;25176;51.060;3.720;2024-01-11T05:13:42;-1.60;99.20
39493;DHT22;25176;51.060;3.720;2024-01-11T05:16:16;-1.50;99.60
39493;DHT22;25176;51.060;3.720;2024-01-11T05:18:41;-1.40;99.60
39493;DHT22;25176;51.060;3.720;2024-01-11T05:21:07;-1.30;99.30
39493;DHT22;25176;51.060;3.720;2024-01-11T05:23:32;-1.40;99.20
39493;DHT22;25176;51.060;3.720;2024-01-11T05:25:58;-1.40;99.20
39493;DHT22;25176;51.060;3.720;2024-01-11T05:28:23;-1.30;99.40
39493;DHT22;25176;51.060;3.720;2024-01-11T05:30:49;-1.40;99.10
39493;DHT22;25176;51.060;3.720;2024-01-11T05:33:14;-1.30;99.20
39493;DHT22;25176;51.060;3.720;2024-01-11T05:35:40;-1.40;99.30
39493;DHT22;25176;51.060;3.720;2024-01-11T05:38:05;-1.50;99.40
39493;DHT22;25176;51.060;3.720;2024-01-11T05:40:31;-1.40;99.50
39493;DHT22;25176;51.060;3.720;2024-01-11T05:42:56;-1.50;99.50
39493;DHT22;25176;51.060;3.720;2024-01-11T05:45:22;-1.40;99.50
39493;DHT22;25176;51.060;3.720;2024-01-11T05:47:47;-1.50;99.70
39493;DHT22;25176;51.060;3.720;2024-01-11T05:50:13;-1.50;99.50
39493;DHT22;25176;51.060;3.720;2024-01-11T05:52:39;-1.50;99.60
39493;DHT22;25176;51.060;3.720;2024-01-11T05:55:04;-1.50;99.60
39493;DHT22;25176;51.060;3.720;2024-01-11T05:57:30;-1.50;99.70
39493;DHT22;25176;51.060;3.720;2024-01-11T05:59:55;-1.60;99.70
39493;DHT22;25176;51.060;3.720;2024-01-11T06:02:21;-1.60;99.80
39493;DHT22;25176;51.060;3.720;2024-01-11T06:04:48;-1.60;99.90
39493;DHT22;25176;51.060;3.720;2024-01-11T06:07:14;-1.60;99.70
39493;DHT22;25176;51.060;3.720;2024-01-11T06:09:40;-1.60;99.70
39493;DHT22;25176;51.060;3.720;2024-01-11T06:12:05;-1.60;99.70
39493;DHT22;25176;51.060;3.720;2024-01-11T06:14:31;-1.60;99.80
39493;DHT22;25176;51.060;3.720;2024-01-11T06:16:56;-1.60;99.90
39493;DHT22;25176;51.060;3.720;2024-01-11T06:19:22;-1.60;99.90
39493;DHT22;25176;51.060;3.720;2024-01-11T06:21:48;-1.60;99.90
39493;DHT22;25176;51.060;3.720;2024-01-11T06:24:13;-1.60;99.90
39493;DHT22;25176;51.060;3.720;2024-01-11T06:26:39;-1.60;99.90
39493;DHT22;25176;51.060;3.720;2024-01-11T06:29:04;-1.60;99.90
39493;DHT22;25176;51.060;3.720;2024-01-11T06:31:30;-1.70;99.90
39493;DHT22;25176;51.060;3.720;2024-01-11T06:33:55;-1.70;99.90
39493;DHT22;25176;51.060;3.720;2024-01-11T06:36:21;-1.60;99.90
39493;DHT22;25176;51.060;3.720;2024-01-11T06:38:46;-1.70;99.90
39493;DHT22;25176;51.060;3.720;2024-01-11T06:41:12;-1.60;99.90
39493;DHT22;25176;51.060;3.720;2024-01-11T06:43:38;-1.70;99.90
39493;DHT22;25176;51.060;3.720;2024-01-11T06:46:04;-1.70;99.90
39493;DHT22;25176;51.060;3.720;2024-01-11T06:48:29;-1.70;99.90
39493;DHT22;25176;51.060;3.720;2024-01-11T06:50:55;-1.60;99.90
39493;DHT22;25176;51.060;3.720;2024-01-11T06:53:20;-1.70;99.90
39493;DHT22;25176;51.060;3.720;2024-01-11T06:55:46;-1.70;99.90
39493;DHT22;25176;51.060;3.720;2024-01-11T06:58:13;-1.70;99.90
39493;DHT22;25176;51.060;3.720;2024-01-11T07:00:39;-1.80;99.90
39493;DHT22;25176;51.060;3.720;2024-01-11T07:03:11;-1.70;99.90
39493;DHT22;25176;51.060;3.720;2024-01-11T07:05:37;-1.80;99.90
39493;DHT22;25176;51.060;3.720;2024-01-11T07:08:02;-1.70;99.90
39493;DHT22;25176;51.060;3.720;2024-01-11T07:10:29;-1.80;99.90
39493;DHT22;25176;51.060;3.720;2024-01-11T07:12:55;-1.80;99.90
39493;DHT22;25176;51.060;3.720;2024-01-11T07:15:20;-1.80;99.90
39493;DHT22;25176;51.060;3.720;2024-01-11T07:17:46;-1.80;99.90
39493;DHT22;25176;51.060;3.720;2024-01-11T07:20:13;-1.80;99.90
39493;DHT22;25176;51.060;3.720;2024-01-11T07:22:41;-1.80;99.90
39493;DHT22;25176;51.060;3.720;2024-01-11T07:25:06;-1.80;99.90
39493;DHT22;25176;51.060;3.720;2024-01-11T07:27:32;-1.80;99.90
39493;DHT22;25176;51.060;3.720;2024-01-11T07:29:58;-1.90;99.90
39493;DHT22;25176;51.060;3.720;2024-01-11T07:32:23;-1.80;99.90
39493;DHT22;25176;51.060;3.720;2024-01-11T07:34:51;-1.80;99.90
39493;DHT22;25176;51.060;3.720;2024-01-11T07:37:16;-1.80;99.90
39493;DHT22;25176;51.060;3.720;2024-01-11T07:39:42;-1.80;99.90
39493;DHT22;25176;51.060;3.720;2024-01-11T07:42:08;-1.80;99.90
39493;DHT22;25176;51.060;3.720;2024-01-11T07:44:33;-1.80;99.90
39493;DHT22;25176;51.060;3.720;2024-01-11T07:46:59;-1.70;99.90
39493;DHT22;25176;51.060;3.720;2024-01-11T07:49:24;-1.70;99.90
39493;DHT22;25176;51.060;3.720;2024-01-11T07:51:50;-1.70;99.90
39493;DHT22;25176;51.060;3.720;2024-01-11T07:54:16;-1.70;99.90
39493;DHT22;25176;51.060;3.720;2024-01-11T07:56:41;-1.80;99.90
39493;DHT22;25176;51.060;3.720;2024-01-11T07:59:07;-1.80;99.90
39493;DHT22;25176;51.060;3.720;2024-01-11T08:01:33;-1.80;99.90
39493;DHT22;25176;51.060;3.720;2024-01-11T08:04:00;-1.80;99.90
39493;DHT22;25176;51.060;3.720;2024-01-11T08:06:28;-1.90;99.90
39493;DHT22;25176;51.060;3.720;2024-01-11T08:08:53;-1.80;99.90
39493;DHT22;25176;51.060;3.720;2024-01-11T08:11:19;-1.80;99.90
39493;DHT22;25176;51.060;3.720;2024-01-11T08:13:45;-1.80;99.90
39493;DHT22;25176;51.060;3.720;2024-01-11T08:16:15;-1.90;99.90
39493;DHT22;25176;51.060;3.720;2024-01-11T08:18:42;-1.90;99.90
39493;DHT22;25176;51.060;3.720;2024-01-11T08:21:07;-1.90;99.90
39493;DHT22;25176;51.060;3.720;2024-01-11T08:23:34;-1.90;99.90
39493;DHT22;25176;51.060;3.720;2024-01-11T08:26:00;-1.90;99.90
39493;DHT22;25176;51.060;3.720;2024-01-11T08:28:26;-2.00;99.90
39493;DHT22;25176;51.060;3.720;2024-01-11T08:30:51;-1.90;99.90
39493;DHT22;25176;51.060;3.720;2024-01-11T08:33:17;-1.90;99.90
39493;DHT22;25176;51.060;3.720;2024-01-11T08:35:43;-1.90;99.90
39493;DHT22;25176;51.060;3.720;2024-01-11T08:38:08;-1.90;99.90
39493;DHT22;25176;51.060;3.720;2024-01-11T08:40:34;-1.90;99.90
39493;DHT22;25176;51.060;3.720;2024-01-11T08:43:00;-1.90;99.90
39493;DHT22;25176;51.060;3.720;2024-01-11T08:45:26;-1.90;99.90
39493;DHT22;25176;51.060;3.720;2024-01-11T08:47:51;-1.90;99.90
39493;DHT22;25176;51.060;3.720;2024-01-11T08:50:17;-1.90;99.90
39493;DHT22;25176;51.060;3.720;2024-01-11T08:52:43;-1.90;99.90
39493;DHT22;25176;51.060;3.720;2024-01-11T08:55:08;-1.80;99.90
39493;DHT22;25176;51.060;3.720;2024-01-11T08:57:34;-1.80;99.90
39493;DHT22;25176;51.060;3.720;2024-01-11T09:00:03;-1.70;99.90
39493;DHT22;25176;51.060;3.720;2024-01-11T09:02:31;-1.60;99.90
39493;DHT22;25176;51.060;3.720;2024-01-11T09:04:57;-1.70;99.90
39493;DHT22;25176;51.060;3.720;2024-01-11T09:07:23;-1.60;99.90
39493;DHT22;25176;51.060;3.720;2024-01-11T09:09:48;-1.50;99.90
39493;DHT22;25176;51.060;3.720;2024-01-11T09:12:14;-1.50;99.90
39493;DHT22;25176;51.060;3.720;2024-01-11T09:14:39;-1.40;99.90
39493;DHT22;25176;51.060;3.720;2024-01-11T09:17:05;-1.30;99.90
39493;DHT22;25176;51.060;3.720;2024-01-11T09:19:34;-1.30;99.90
39493;DHT22;25176;51.060;3.720;2024-01-11T09:22:00;-1.20;99.90
39493;DHT22;25176;51.060;3.720;2024-01-11T09:24:25;-1.10;99.90
39493;DHT22;25176;51.060;3.720;2024-01-11T09:26:51;-1.10;99.90
39493;DHT22;25176;51.060;3.720;2024-01-11T09:29:17;-1.10;99.90
39493;DHT22;25176;51.060;3.720;2024-01-11T09:31:43;-1.00;99.90
39493;DHT22;25176;51.060;3.720;2024-01-11T09:34:09;-1.00;99.90
39493;DHT22;25176;51.060;3.720;2024-01-11T09:36:35;-1.00;99.90
39493;DHT22;25176;51.060;3.720;2024-01-11T09:39:01;-0.90;99.90
39493;DHT22;25176;51.060;3.720;2024-01-11T09:41:27;-0.70;99.70
39493;DHT22;25176;51.060;3.720;2024-01-11T09:43:54;-0.80;99.50
39493;DHT22;25176;51.060;3.720;2024-01-11T09:46:19;-0.70;99.60
39493;DHT22;25176;51.060;3.720;2024-01-11T09:48:46;-0.70;99.40
39493;DHT22;25176;51.060;3.720;2024-01-11T09:51:13;-0.60;99.20
39493;DHT22;25176;51.060;3.720;2024-01-11T09:53:39;-0.40;99.40
39493;DHT22;25176;51.060;3.720;2024-01-11T09:56:08;0.40;99.90
39493;DHT22;25176;51.060;3.720;2024-01-11T09:58:35;2.60;99.40
39493;DHT22;25176;51.060;3.720;2024-01-11T10:01:06;4.30;94.30
39493;DHT22;25176;51.060;3.720;2024-01-11T10:03:33;5.50;90.70
39493;DHT22;25176;51.060;3.720;2024-01-11T10:05:59;6.80;90.70
39493;DHT22;25176;51.060;3.720;2024-01-11T10:08:27;6.40;90.10
39493;DHT22;25176;51.060;3.720;2024-01-11T10:10:53;5.80;89.00
39493;DHT22;25176;51.060;3.720;2024-01-11T10:13:18;5.20;89.20
39493;DHT22;25176;51.060;3.720;2024-01-11T10:15:50;5.70;90.40
39493;DHT22;25176;51.060;3.720;2024-01-11T10:18:16;5.60;88.00
39493;DHT22;25176;51.060;3.720;2024-01-11T10:20:41;4.20;90.80
39493;DHT22;25176;51.060;3.720;2024-01-11T10:23:07;3.20;92.30
39493;DHT22;25176;51.060;3.720;2024-01-11T10:25:32;2.60;93.30
39493;DHT22;25176;51.060;3.720;2024-01-11T10:27:58;2.10;94.30
39493;DHT22;25176;51.060;3.720;2024-01-11T10:30:25;1.90;94.80
39493;DHT22;25176;51.060;3.720;2024-01-11T10:32:51;1.70;95.10
39493;DHT22;25176;51.060;3.720;2024-01-11T10:35:17;1.60;95.20
39493;DHT22;25176;51.060;3.720;2024-01-11T10:37:43;1.60;95.60
39493;DHT22;25176;51.060;3.720;2024-01-11T10:40:09;1.50;96.00
39493;DHT22;25176;51.060;3.720;2024-01-11T10:42:39;1.40;96.10
39493;DHT22;25176;51.060;3.720;2024-01-11T10:45:08;1.40;96.60
39493;DHT22;25176;51.060;3.720;2024-01-11T10:47:36;1.40;96.10
39493;DHT22;25176;51.060;3.720;2024-01-11T10:50:03;1.40;96.10
39493;DHT22;25176;51.060;3.720;2024-01-11T10:52:32;1.30;96.40
39493;DHT22;25176;51.060;3.720;2024-01-11T10:55:00;1.30;96.70
39493;DHT22;25176;51.060;3.720;2024-01-11T10:57:26;1.30;96.60
39493;DHT22;25176;51.060;3.720;2024-01-11T10:59:53;1.20;96.40
39493;DHT22;25176;51.060;3.720;2024-01-11T11:02:19;1.30;96.30
39493;DHT22;25176;51.060;3.720;2024-01-11T11:04:46;1.30;96.10
39493;DHT22;25176;51.060;3.720;2024-01-11T11:07:12;1.40;96.10
39493;DHT22;25176;51.060;3.720;2024-01-11T11:09:39;1.40;96.00
39493;DHT22;25176;51.060;3.720;2024-01-11T11:12:09;1.40;95.90
39493;DHT22;25176;51.060;3.720;2024-01-11T11:14:36;1.40;96.00
39493;DHT22;25176;51.060;3.720;2024-01-11T11:17:02;1.40;95.90
39493;DHT22;25176;51.060;3.720;2024-01-11T11:22:22;1.50;95.80
39493;DHT22;25176;51.060;3.720;2024-01-11T11:24:48;1.50;95.60
39493;DHT22;25176;51.060;3.720;2024-01-11T11:27:27;1.60;95.60
39493;DHT22;25176;51.060;3.720;2024-01-11T11:29:53;1.60;95.40
39493;DHT22;25176;51.060;3.720;2024-01-11T11:32:19;1.70;95.40
39493;DHT22;25176;51.060;3.720;2024-01-11T11:34:59;1.70;95.30
39493;DHT22;25176;51.060;3.720;2024-01-11T11:37:25;1.80;95.30
39493;DHT22;25176;51.060;3.720;2024-01-11T11:39:50;1.80;95.20
39493;DHT22;25176;51.060;3.720;2024-01-11T11:42:17;1.80;95.40
39493;DHT22;25176;51.060;3.720;2024-01-11T11:44:52;1.80;95.20
39493;DHT22;25176;51.060;3.720;2024-01-11T11:47:18;1.90;95.30
39493;DHT22;25176;51.060;3.720;2024-01-11T11:52:31;1.90;95.50
39493;DHT22;25176;51.060;3.720;2024-01-11T11:54:58;2.00;95.50
39493;DHT22;25176;51.060;3.720;2024-01-11T11:57:25;2.10;95.50
39493;DHT22;25176;51.060;3.720;2024-01-11T11:59:54;2.10;95.60
39493;DHT22;25176;51.060;3.720;2024-01-11T12:02:21;2.00;95.30
39493;DHT22;25176;51.060;3.720;2024-01-11T12:04:48;2.10;95.50
39493;DHT22;25176;51.060;3.720;2024-01-11T12:07:14;2.20;95.50
39493;DHT22;25176;51.060;3.720;2024-01-11T12:09:41;2.20;95.00
39493;DHT22;25176;51.060;3.720;2024-01-11T12:12:07;2.10;94.70
39493;DHT22;25176;51.060;3.720;2024-01-11T12:14:33;2.10;94.80
39493;DHT22;25176;51.060;3.720;2024-01-11T12:16:59;2.20;94.90
39493;DHT22;25176;51.060;3.720;2024-01-11T12:19:25;2.30;95.00
39493;DHT22;25176;51.060;3.720;2024-01-11T12:21:50;2.30;95.00
39493;DHT22;25176;51.060;3.720;2024-01-11T12:24:16;2.40;94.90
39493;DHT22;25176;51.060;3.720;2024-01-11T12:26:42;2.40;94.70
39493;DHT22;25176;51.060;3.720;2024-01-11T12:29:08;2.40;94.80
39493;DHT22;25176;51.060;3.720;2024-01-11T12:31:34;2.40;94.60
39493;DHT22;25176;51.060;3.720;2024-01-11T12:34:01;2.40;94.50
39493;DHT22;25176;51.060;3.720;2024-01-11T12:36:26;2.50;94.60
39493;DHT22;25176;51.060;3.720;2024-01-11T12:38:53;2.50;94.70
39493;DHT22;25176;51.060;3.720;2024-01-11T12:41:19;2.50;94.80
39493;DHT22;25176;51.060;3.720;2024-01-11T12:43:47;2.50;94.80
39493;DHT22;25176;51.060;3.720;2024-01-11T12:46:12;2.50;94.80
39493;DHT22;25176;51.060;3.720;2024-01-11T12:48:38;2.60;95.00
39493;DHT22;25176;51.060;3.720;2024-01-11T12:51:04;2.50;95.00
39493;DHT22;25176;51.060;3.720;2024-01-11T12:53:30;2.50;95.00
39493;DHT22;25176;51.060;3.720;2024-01-11T12:56:05;2.50;94.80
39493;DHT22;25176;51.060;3.720;2024-01-11T12:58:39;2.50;94.50
39493;DHT22;25176;51.060;3.720;2024-01-11T13:01:05;2.50;94.30
39493;DHT22;25176;51.060;3.720;2024-01-11T13:03:33;2.40;94.00
39493;DHT22;25176;51.060;3.720;2024-01-11T13:05:58;2.40;94.00
39493;DHT22;25176;51.060;3.720;2024-01-11T13:08:24;2.40;94.00
39493;DHT22;25176;51.060;3.720;2024-01-11T13:10:50;2.40;94.30
39493;DHT22;25176;51.060;3.720;2024-01-11T13:13:15;2.50;93.90
39493;DHT22;25176;51.060;3.720;2024-01-11T13:15:41;2.40;93.60
39493;DHT22;25176;51.060;3.720;2024-01-11T13:18:07;2.50;93.60
39493;DHT22;25176;51.060;3.720;2024-01-11T13:20:32;2.50;93.50
39493;DHT22;25176;51.060;3.720;2024-01-11T13:23:17;2.50;93.20
39493;DHT22;25176;51.060;3.720;2024-01-11T13:25:45;2.40;92.70
39493;DHT22;25176;51.060;3.720;2024-01-11T13:28:11;2.40;92.00
39493;DHT22;25176;51.060;3.720;2024-01-11T13:30:37;2.40;91.90
39493;DHT22;25176;51.060;3.720;2024-01-11T13:33:04;2.40;91.50
39493;DHT22;25176;51.060;3.720;2024-01-11T13:35:30;2.40;91.10
39493;DHT22;25176;51.060;3.720;2024-01-11T13:37:56;2.40;91.20
39493;DHT22;25176;51.060;3.720;2024-01-11T13:40:21;2.40;91.10
39493;DHT22;25176;51.060;3.720;2024-01-11T13:42:47;2.50;91.20
39493;DHT22;25176;51.060;3.720;2024-01-11T13:45:13;2.50;91.30
39493;DHT22;25176;51.060;3.720;2024-01-11T13:47:39;2.50;91.60
39493;DHT22;25176;51.060;3.720;2024-01-11T13:50:04;2.40;91.90
39493;DHT22;25176;51.060;3.720;2024-01-11T13:52:30;2.40;92.30
39493;DHT22;25176;51.060;3.720;2024-01-11T13:54:55;2.40;92.70
39493;DHT22;25176;51.060;3.720;2024-01-11T13:57:21;2.50;93.10
39493;DHT22;25176;51.060;3.720;2024-01-11T13:59:46;2.40;93.50
39493;DHT22;25176;51.060;3.720;2024-01-11T14:02:13;2.50;94.00
39493;DHT22;25176;51.060;3.720;2024-01-11T14:04:38;2.40;94.50
39493;DHT22;25176;51.060;3.720;2024-01-11T14:07:05;2.40;94.80
39493;DHT22;25176;51.060;3.720;2024-01-11T14:09:31;2.40;95.80
39493;DHT22;25176;51.060;3.720;2024-01-11T14:11:56;2.40;96.90
39493;DHT22;25176;51.060;3.720;2024-01-11T14:14:22;2.30;98.10
39493;DHT22;25176;51.060;3.720;2024-01-11T14:16:47;2.30;99.30
39493;DHT22;25176;51.060;3.720;2024-01-11T14:19:14;2.30;99.90
39493;DHT22;25176;51.060;3.720;2024-01-11T14:21:39;2.30;99.90
39493;DHT22;25176;51.060;3.720;2024-01-11T14:24:05;2.30;99.90
39493;DHT22;25176;51.060;3.720;2024-01-11T14:26:31;2.30;99.90
39493;DHT22;25176;51.060;3.720;2024-01-11T14:28:57;2.20;99.90
39493;DHT22;25176;51.060;3.720;2024-01-11T14:31:23;2.30;99.90
39493;DHT22;25176;51.060;3.720;2024-01-11T14:33:48;2.40;99.90
39493;DHT22;25176;51.060;3.720;2024-01-11T14:36:15;2.40;99.90
39493;DHT22;25176;51.060;3.720;2024-01-11T14:38:41;2.50;99.90
39493;DHT22;25176;51.060;3.720;2024-01-11T14:41:06;2.40;99.90
39493;DHT22;25176;51.060;3.720;2024-01-11T14:43:32;2.40;99.90
39493;DHT22;25176;51.060;3.720;2024-01-11T14:45:58;2.40;99.90
39493;DHT22;25176;51.060;3.720;2024-01-11T14:48:23;2.40;99.90
39493;DHT22;25176;51.060;3.720;2024-01-11T14:50:49;2.40;99.90
39493;DHT22;25176;51.060;3.720;2024-01-11T14:53:15;2.50;99.90
39493;DHT22;25176;51.060;3.720;2024-01-11T14:55:43;2.40;99.90
39493;DHT22;25176;51.060;3.720;2024-01-11T14:58:09;2.40;99.90
39493;DHT22;25176;51.060;3.720;2024-01-11T15:00:35;2.30;99.90
39493;DHT22;25176;51.060;3.720;2024-01-11T15:03:01;2.40;99.90
39493;DHT22;25176;51.060;3.720;2024-01-11T15:05:27;2.40;99.90
39493;DHT22;25176;51.060;3.720;2024-01-11T15:07:54;2.40;99.90
39493;DHT22;25176;51.060;3.720;2024-01-11T15:10:20;2.30;99.90
39493;DHT22;25176;51.060;3.720;2024-01-11T15:12:46;2.20;99.90
39493;DHT22;25176;51.060;3.720;2024-01-11T15:15:11;2.20;99.90
39493;DHT22;25176;51.060;3.720;2024-01-11T15:17:37;2.20;99.90
39493;DHT22;25176;51.060;3.720;2024-01-11T15:20:03;2.20;99.90
39493;DHT22;25176;51.060;3.720;2024-01-11T15:22:30;2.30;99.90
39493;DHT22;25176;51.060;3.720;2024-01-11T15:24:55;2.30;99.90
39493;DHT22;25176;51.060;3.720;2024-01-11T15:27:21;2.40;99.90
39493;DHT22;25176;51.060;3.720;2024-01-11T15:29:47;2.40;99.90
39493;DHT22;25176;51.060;3.720;2024-01-11T15:32:13;2.30;99.90
39493;DHT22;25176;51.060;3.720;2024-01-11T15:34:39;2.30;99.90
39493;DHT22;25176;51.060;3.720;2024-01-11T15:37:06;2.30;99.90